createdAt,value
2023-05-06T00:00:52.711Z,62.65
2023-05-06T00:05:57.121Z,62.83
2023-05-06T00:11:01.865Z,62.69
2023-05-06T00:16:06.309Z,62.20
2023-05-06T00:21:12.744Z,62.13
2023-05-06T00:26:16.764Z,61.71
2023-05-06T00:31:21.811Z,61.49
2023-05-06T00:36:26.041Z,61.46
2023-05-06T00:41:34.230Z,61.38
2023-05-06T00:46:40.439Z,60.85
2023-05-06T00:51:44.823Z,60.20
2023-05-06T00:56:48.802Z,59.74
2023-05-06T01:01:54.261Z,59.76
2023-05-06T01:07:13.152Z,59.88
2023-05-06T01:12:29.872Z,59.90
2023-05-06T01:17:43.101Z,59.91
2023-05-06T01:22:51.269Z,59.90
2023-05-06T01:27:55.795Z,60.26
2023-05-06T01:33:03.583Z,61.26
2023-05-06T01:38:35.175Z,61.51
2023-05-06T01:43:43.847Z,62.03
2023-05-06T01:48:54.329Z,62.35
2023-05-06T01:53:58.139Z,62.59
2023-05-06T01:59:04.207Z,62.69
2023-05-06T02:04:08.269Z,62.87
2023-05-06T02:09:13.001Z,63.43
2023-05-06T02:14:17.134Z,63.92
2023-05-06T02:19:21.176Z,63.95
2023-05-06T02:24:27.247Z,64.02
2023-05-06T02:29:30.863Z,64.32
2023-05-06T02:34:36.115Z,64.82
2023-05-06T02:39:40.972Z,65.04
2023-05-06T02:44:46.152Z,65.22
2023-05-06T02:49:50.961Z,65.68
2023-05-06T02:54:55.106Z,66.21
2023-05-06T03:00:00.866Z,66.33
2023-05-06T03:05:05.934Z,66.29
2023-05-06T03:10:10.373Z,65.94
2023-05-06T03:15:14.082Z,65.74
2023-05-06T03:20:17.926Z,65.89
2023-05-06T03:25:22.980Z,65.51
2023-05-06T03:30:27.003Z,64.89
2023-05-06T03:35:33.195Z,64.64
2023-05-06T03:40:38.337Z,64.29
2023-05-06T03:45:43.223Z,64.25
2023-05-06T03:50:53.056Z,63.82
2023-05-06T03:55:57.152Z,63.54
2023-05-06T04:01:01.227Z,63.12
2023-05-06T04:06:06.803Z,62.81
2023-05-06T04:11:11.449Z,62.67
2023-05-06T04:16:17.146Z,61.73
2023-05-06T04:21:21.033Z,61.38
2023-05-06T04:26:25.697Z,61.44
2023-05-06T04:31:31.134Z,61.44
2023-05-06T04:36:35.894Z,60.96
2023-05-06T04:41:41.073Z,60.99
2023-05-06T04:46:45.134Z,60.63
2023-05-06T04:51:48.842Z,60.10
2023-05-06T04:56:54.472Z,59.60
2023-05-06T05:01:59.160Z,59.11
2023-05-06T05:07:04.186Z,58.72
2023-05-06T05:12:08.239Z,58.41
2023-05-06T05:17:12.050Z,57.83
2023-05-06T05:22:17.096Z,57.42
2023-05-06T05:27:21.125Z,56.84
2023-05-06T05:32:25.879Z,56.48
2023-05-06T05:37:30.206Z,55.24
2023-05-06T05:42:35.160Z,54.87
2023-05-06T05:47:40.129Z,54.49
2023-05-06T05:52:47.754Z,53.97
2023-05-06T05:57:52.977Z,54.22
2023-05-06T06:02:58.746Z,53.11
2023-05-06T06:08:04.134Z,52.92
2023-05-06T06:13:09.268Z,52.84
2023-05-06T06:18:13.307Z,52.01
2023-05-06T06:23:19.082Z,51.42
2023-05-06T06:28:24.948Z,50.37
2023-05-06T06:33:30.654Z,49.24
2023-05-06T06:38:37.697Z,49.28
2023-05-06T06:43:42.086Z,47.94
2023-05-06T06:48:47.451Z,47.61
2023-05-06T06:53:52.618Z,46.74
2023-05-06T06:58:57.304Z,46.34
2023-05-06T07:05:23.299Z,46.26
2023-05-06T07:11:12.384Z,46.24
2023-05-06T07:23:37.083Z,44.18
2023-05-06T07:35:30.606Z,42.63
2023-05-06T07:48:02.129Z,41.86
2023-05-06T07:53:05.868Z,41.73
2023-05-06T07:58:09.657Z,41.72
2023-05-06T08:03:24.237Z,40.92
2023-05-06T08:08:30.723Z,41.01
2023-05-06T08:13:55.236Z,41.58
2023-05-06T08:19:51.399Z,41.42
2023-05-06T08:25:39.156Z,40.67
2023-05-06T08:30:43.080Z,40.88
2023-05-06T08:37:09.375Z,41.38
2023-05-06T08:42:13.257Z,41.08
2023-05-06T08:47:42.370Z,40.89
2023-05-06T08:52:48.083Z,40.49
2023-05-06T08:58:17.589Z,40.23
2023-05-06T09:03:54.429Z,41.08
2023-05-06T09:09:02.006Z,40.66
2023-05-06T09:14:43.862Z,41.08
2023-05-06T09:20:13.065Z,40.92
2023-05-06T09:25:17.888Z,41.06
2023-05-06T09:30:48.182Z,40.96
2023-05-06T09:35:52.373Z,41.42
2023-05-06T09:41:23.119Z,41.74
2023-05-06T09:46:28.444Z,41.30
2023-05-06T09:51:33.542Z,41.13
2023-05-06T09:56:41.274Z,40.99
2023-05-06T10:03:03.147Z,41.16
2023-05-06T10:08:09.817Z,41.28
2023-05-06T10:13:27.200Z,41.42
2023-05-06T10:19:23.145Z,41.22
2023-05-06T10:24:46.914Z,41.51
2023-05-06T10:30:43.276Z,41.36
2023-05-06T10:36:10.972Z,41.27
2023-05-06T10:41:40.457Z,41.19
2023-05-06T10:47:09.791Z,41.42
2023-05-06T10:52:17.330Z,41.03
2023-05-06T10:57:43.242Z,40.97
2023-05-06T11:03:42.604Z,41.15
2023-05-06T11:08:59.138Z,41.62
2023-05-06T11:14:30.421Z,40.41
2023-05-06T11:20:22.127Z,41.38
2023-05-06T11:25:45.408Z,41.83
2023-05-06T11:32:11.512Z,41.24
2023-05-06T11:44:51.059Z,40.81
2023-05-06T11:50:49.392Z,39.90
2023-05-06T11:55:54.845Z,40.56
2023-05-06T12:01:24.338Z,40.77
2023-05-06T12:06:38.161Z,41.12
2023-05-06T12:11:45.060Z,41.00
2023-05-06T12:16:49.189Z,40.44
2023-05-06T12:21:52.998Z,40.44
2023-05-06T12:26:56.822Z,39.99
2023-05-06T12:32:58.460Z,40.64
2023-05-06T12:38:17.231Z,40.96
2023-05-06T12:43:34.727Z,40.49
2023-05-06T12:48:39.789Z,40.87
2023-05-06T12:55:05.843Z,40.94
2023-05-06T13:00:11.645Z,41.78
2023-05-06T13:05:16.476Z,41.78
2023-05-06T13:10:21.009Z,42.28
2023-05-06T13:15:27.315Z,41.68
2023-05-06T13:20:34.689Z,41.60
2023-05-06T13:25:55.967Z,42.01
2023-05-06T13:31:06.877Z,41.31
2023-05-06T13:36:10.976Z,40.48
2023-05-06T13:41:18.048Z,39.94
2023-05-06T13:46:24.879Z,39.69
2023-05-06T13:51:30.958Z,40.33
2023-05-06T13:56:38.523Z,40.49
2023-05-06T14:01:43.278Z,40.41
2023-05-06T14:06:46.979Z,40.13
2023-05-06T14:11:51.966Z,40.23
2023-05-06T14:16:56.309Z,40.29
2023-05-06T14:22:01.256Z,40.75
2023-05-06T14:27:06.062Z,41.40
2023-05-06T14:32:10.351Z,41.47
2023-05-06T14:37:39.258Z,41.85
2023-05-06T14:43:32.558Z,42.38
2023-05-06T14:48:36.274Z,42.63
2023-05-06T14:55:05.815Z,42.34
2023-05-06T15:00:10.708Z,42.31
2023-05-06T15:06:04.312Z,42.40
2023-05-06T15:19:37.129Z,41.96
2023-05-06T15:29:07.612Z,41.26
2023-05-06T16:06:50.993Z,42.09
2023-05-06T16:11:55.224Z,41.42
2023-05-06T16:17:26.220Z,41.71
2023-05-06T16:23:46.924Z,42.03
2023-05-06T16:29:40.946Z,42.38
2023-05-06T16:36:20.465Z,42.73
2023-05-06T16:48:54.265Z,42.76
2023-05-06T16:54:51.689Z,43.16
2023-05-06T17:07:25.026Z,44.03
2023-05-06T17:12:28.958Z,44.12
2023-05-06T17:17:35.035Z,44.26
2023-05-06T17:22:41.414Z,44.58
2023-05-06T17:27:49.502Z,44.94
2023-05-06T17:32:55.722Z,45.70
2023-05-06T17:38:00.485Z,45.96
2023-05-06T17:43:07.695Z,46.48
2023-05-06T17:48:12.517Z,46.88
2023-05-06T17:53:17.576Z,47.38
2023-05-06T17:58:21.958Z,47.68
2023-05-06T18:03:26.052Z,48.25
2023-05-06T18:08:31.745Z,48.61
2023-05-06T18:13:37.188Z,48.75
2023-05-06T18:18:41.220Z,49.01
2023-05-06T18:23:44.837Z,49.22
2023-05-06T18:28:49.714Z,49.44
2023-05-06T18:33:54.136Z,49.51
2023-05-06T18:38:58.582Z,49.72
2023-05-06T18:44:04.930Z,50.01
2023-05-06T18:49:09.711Z,50.06
2023-05-06T18:54:48.966Z,50.08
2023-05-06T19:00:44.769Z,50.06
2023-05-06T19:12:38.872Z,50.54
2023-05-06T19:32:59.053Z,51.88
2023-05-06T19:45:17.473Z,52.67
2023-05-06T19:50:23.604Z,52.94
2023-05-06T19:55:28.451Z,53.30
2023-05-06T20:00:33.394Z,53.54
2023-05-06T20:05:37.367Z,53.69
2023-05-06T20:10:41.264Z,53.75
2023-05-06T20:15:45.643Z,53.69
2023-05-06T20:20:49.614Z,53.65
2023-05-06T20:25:54.262Z,53.63
2023-05-06T20:31:00.046Z,53.76
2023-05-06T20:36:06.030Z,54.03
2023-05-06T20:41:10.171Z,53.92
2023-05-06T20:46:14.223Z,53.97
2023-05-06T20:51:20.353Z,53.96
2023-05-06T20:56:25.536Z,54.13
2023-05-06T21:01:29.785Z,54.23
2023-05-06T21:06:33.793Z,54.46
2023-05-06T21:11:38.623Z,54.58
2023-05-06T21:16:43.375Z,54.90
2023-05-06T21:21:47.314Z,54.75
2023-05-06T21:26:52.045Z,54.94
2023-05-06T21:31:55.885Z,55.14
2023-05-06T21:37:00.213Z,55.22
2023-05-06T21:42:04.563Z,55.38
2023-05-06T21:47:10.263Z,55.46
2023-05-06T21:52:14.057Z,55.74
2023-05-06T21:57:19.204Z,55.92
2023-05-06T22:02:23.196Z,55.96
2023-05-06T22:07:26.882Z,56.14
2023-05-06T22:17:41.510Z,56.44
2023-05-06T22:22:45.202Z,56.67
2023-05-06T22:27:48.984Z,56.76
2023-05-06T22:32:52.803Z,56.51
2023-05-06T22:37:57.303Z,56.47
2023-05-06T22:43:01.216Z,56.58
2023-05-06T22:48:06.642Z,56.79
2023-05-06T22:53:14.988Z,56.88
2023-05-06T22:58:21.198Z,57.04
2023-05-06T23:03:25.337Z,57.26
2023-05-06T23:08:29.359Z,57.19
2023-05-06T23:13:36.382Z,57.24
2023-05-06T23:18:41.551Z,57.63
2023-05-06T23:23:45.233Z,57.80
2023-05-06T23:28:49.273Z,58.01
2023-05-06T23:33:53.211Z,58.24
2023-05-06T23:38:57.237Z,58.46
2023-05-06T23:44:01.197Z,58.65
2023-05-06T23:49:05.907Z,58.81
2023-05-06T23:54:09.845Z,59.03
2023-05-06T23:59:14.305Z,59.38
